createdAt,value
2019-03-09T00:01:12.961Z,99057.05
2019-03-09T00:03:40.017Z,99057.53
2019-03-09T00:06:07.091Z,99058.48
2019-03-09T00:08:34.270Z,99061.59
2019-03-09T00:11:01.328Z,99065.91
2019-03-09T00:13:28.413Z,99062.49
2019-03-09T00:15:55.489Z,99066.84
2019-03-09T00:18:22.546Z,99062.95
2019-03-09T00:20:49.600Z,99072.92
2019-03-09T00:23:35.068Z,99076.86
2019-03-09T00:26:08.010Z,99070.41
2019-03-09T00:28:41.356Z,99080.87
2019-03-09T00:31:16.508Z,99087.86
2019-03-09T00:33:43.570Z,99085.71
2019-03-09T00:36:10.633Z,99084.87
2019-03-09T00:38:37.704Z,99079.70
2019-03-09T00:41:04.761Z,99083.61
2019-03-09T00:43:31.840Z,99078.94
2019-03-09T00:45:59.104Z,99087.16
2019-03-09T00:48:26.165Z,99082.00
2019-03-09T00:50:53.233Z,99085.50
2019-03-09T00:53:20.348Z,99088.09
2019-03-09T00:55:47.420Z,99090.70
2019-03-09T00:58:14.493Z,99086.83
2019-03-09T01:00:41.586Z,99093.34
2019-03-09T01:03:08.672Z,99100.27
2019-03-09T01:05:35.745Z,99092.94
2019-03-09T01:08:03.041Z,99095.55
2019-03-09T01:10:30.096Z,99102.05
2019-03-09T01:12:57.183Z,99109.05
2019-03-09T01:15:24.252Z,99119.05
2019-03-09T01:17:51.358Z,99127.30
2019-03-09T01:20:18.426Z,99125.15
2019-03-09T01:22:45.503Z,99127.71
2019-03-09T01:25:12.936Z,99129.46
2019-03-09T01:27:40.001Z,99129.91
2019-03-09T01:30:10.055Z,99133.36
2019-03-09T01:32:37.131Z,99141.62
2019-03-09T01:35:04.306Z,99151.58
2019-03-09T01:37:31.382Z,99139.42
2019-03-09T01:39:58.451Z,99147.63
2019-03-09T01:42:25.546Z,99140.67
2019-03-09T01:44:52.708Z,99139.78
2019-03-09T01:47:19.789Z,99138.93
2019-03-09T01:49:46.869Z,99142.80
2019-03-09T01:52:13.932Z,99149.70
2019-03-09T01:54:41.031Z,99155.80
2019-03-09T01:57:08.128Z,99143.65
2019-03-09T01:59:35.192Z,99147.55
2019-03-09T02:02:02.257Z,99151.50
2019-03-09T02:04:29.350Z,99155.40
2019-03-09T02:06:56.472Z,99166.66
2019-03-09T02:09:23.533Z,99158.86
2019-03-09T02:11:50.605Z,99155.81
2019-03-09T02:14:17.710Z,99161.42
2019-03-09T02:16:44.806Z,99157.10
2019-03-09T02:19:11.855Z,99155.36
2019-03-09T02:21:38.919Z,99154.47
2019-03-09T02:24:06.052Z,99158.37
2019-03-09T02:26:33.082Z,99154.91
2019-03-09T02:29:01.138Z,99157.55
2019-03-09T02:31:28.519Z,99161.91
2019-03-09T02:33:55.592Z,99157.16
2019-03-09T02:36:22.841Z,99163.20
2019-03-09T02:38:55.241Z,99165.40
2019-03-09T02:41:22.654Z,99164.14
2019-03-09T02:43:49.691Z,99163.29
2019-03-09T02:46:16.746Z,99169.39
2019-03-09T02:48:43.824Z,99172.44
2019-03-09T02:51:10.922Z,99166.34
2019-03-09T02:53:38.831Z,99175.41
2019-03-09T02:56:05.905Z,99163.70
2019-03-09T02:58:32.962Z,99171.51
2019-03-09T03:01:31.468Z,99172.36
2019-03-09T03:04:42.568Z,99168.90
2019-03-09T03:07:09.624Z,99168.86
2019-03-09T03:09:36.805Z,99179.27
2019-03-09T03:12:03.873Z,99174.99
2019-03-09T03:14:30.940Z,99177.16
2019-03-09T03:16:58.001Z,99184.55
2019-03-09T03:19:25.063Z,99184.55
2019-03-09T03:21:52.147Z,99181.58
2019-03-09T03:24:19.229Z,99188.98
2019-03-09T03:26:46.264Z,99188.53
2019-03-09T03:29:13.372Z,99176.83
2019-03-09T03:31:40.425Z,99177.69
2019-03-09T03:34:07.508Z,99181.14
2019-03-09T03:36:34.575Z,99181.14
2019-03-09T03:39:01.631Z,99188.91
2019-03-09T03:41:28.685Z,99185.45
2019-03-09T03:43:55.760Z,99191.55
2019-03-09T03:46:22.839Z,99183.29
2019-03-09T03:48:49.922Z,99180.28
2019-03-09T03:51:17.039Z,99181.14
2019-03-09T03:53:44.115Z,99191.55
2019-03-09T03:56:11.186Z,99190.25
2019-03-09T03:58:38.243Z,99198.05
2019-03-09T04:01:05.335Z,99195.94
2019-03-09T04:03:32.402Z,99194.22
2019-03-09T04:05:59.582Z,99199.47
2019-03-09T04:08:26.631Z,99199.50
2019-03-09T04:10:53.689Z,99193.85
2019-03-09T04:13:20.762Z,99196.91
2019-03-09T04:15:47.841Z,99197.80
2019-03-09T04:18:14.900Z,99201.28
2019-03-09T04:20:41.952Z,99200.44
2019-03-09T04:23:09.019Z,99200.06
2019-03-09T04:25:36.104Z,99201.43
2019-03-09T04:28:03.297Z,99198.42
2019-03-09T04:30:30.355Z,99197.12
2019-03-09T04:32:57.418Z,99201.05
2019-03-09T04:35:24.580Z,99195.44
2019-03-09T04:37:51.683Z,99193.73
2019-03-09T04:40:18.739Z,99191.13
2019-03-09T04:42:45.809Z,99194.63
2019-03-09T04:45:12.870Z,99198.52
2019-03-09T04:47:39.940Z,99197.70
2019-03-09T04:50:07.051Z,99192.95
2019-03-09T04:52:34.124Z,99191.20
2019-03-09T04:55:01.195Z,99192.50
2019-03-09T04:57:28.275Z,99193.83
2019-03-09T04:59:55.358Z,99198.15
2019-03-09T05:02:22.422Z,99199.89
2019-03-09T05:04:50.379Z,99196.47
2019-03-09T05:07:26.706Z,99191.71
2019-03-09T05:09:57.550Z,99191.30
2019-03-09T05:12:24.634Z,99191.75
2019-03-09T05:14:51.711Z,99192.67
2019-03-09T05:17:18.789Z,99182.27
2019-03-09T05:19:45.853Z,99182.30
2019-03-09T05:22:12.905Z,99190.10
2019-03-09T05:24:39.962Z,99187.05
2019-03-09T05:27:07.034Z,99186.23
2019-03-09T05:29:34.082Z,99176.69
2019-03-09T05:32:01.160Z,99182.72
2019-03-09T05:34:28.273Z,99175.80
2019-03-09T05:36:55.341Z,99174.06
2019-03-09T05:39:22.398Z,99178.37
2019-03-09T05:41:49.459Z,99180.97
2019-03-09T05:44:16.538Z,99170.98
2019-03-09T05:46:43.593Z,99175.70
2019-03-09T05:49:10.651Z,99172.69
2019-03-09T05:51:37.723Z,99173.98
2019-03-09T05:54:04.799Z,99172.21
2019-03-09T05:56:31.959Z,99170.02
2019-03-09T05:58:59.036Z,99170.44
2019-03-09T06:01:26.133Z,99173.89
2019-03-09T06:03:53.227Z,99166.94
2019-03-09T06:06:20.285Z,99167.80
2019-03-09T06:08:48.761Z,99168.66
2019-03-09T06:11:15.882Z,99177.27
2019-03-09T06:13:42.936Z,99177.23
2019-03-09T06:16:10.001Z,99171.14
2019-03-09T06:18:37.057Z,99170.63
2019-03-09T06:21:04.114Z,99172.38
2019-03-09T06:23:31.196Z,99172.30
2019-03-09T06:25:58.254Z,99171.81
2019-03-09T06:28:25.339Z,99163.89
2019-03-09T06:30:52.509Z,99164.30
2019-03-09T06:33:37.987Z,99165.93
2019-03-09T06:36:17.332Z,99169.34
2019-03-09T06:38:59.983Z,99166.22
2019-03-09T06:41:33.653Z,99164.42
2019-03-09T06:44:00.728Z,99160.84
2019-03-09T06:46:27.849Z,99150.80
2019-03-09T06:48:54.991Z,99150.70
2019-03-09T06:51:22.118Z,99148.88
2019-03-09T06:53:49.183Z,99147.06
2019-03-09T06:56:16.248Z,99136.47
2019-03-09T06:58:43.309Z,99140.69
2019-03-09T07:01:18.879Z,99136.62
2019-03-09T07:03:45.989Z,99126.47
2019-03-09T07:06:13.071Z,99122.84
2019-03-09T07:08:40.146Z,99117.44
2019-03-09T07:11:07.215Z,99118.17
2019-03-09T07:13:34.300Z,99113.66
2019-03-09T07:16:01.371Z,99114.39
2019-03-09T07:18:34.309Z,99112.98
2019-03-09T07:21:01.385Z,99106.80
2019-03-09T07:23:28.452Z,99108.89
2019-03-09T07:25:55.523Z,99106.12
2019-03-09T07:28:22.587Z,99113.83
2019-03-09T07:30:49.654Z,99119.77
2019-03-09T07:33:16.731Z,99119.70
2019-03-09T07:35:43.841Z,99121.70
2019-03-09T07:38:10.902Z,99135.47
2019-03-09T07:40:37.967Z,99128.36
2019-03-09T07:43:05.053Z,99129.08
2019-03-09T07:45:32.110Z,99123.73
2019-03-09T07:47:59.438Z,99124.41
2019-03-09T07:50:26.600Z,99129.94
2019-03-09T07:52:53.653Z,99130.55
2019-03-09T07:55:20.746Z,99120.35
2019-03-09T07:57:47.796Z,99123.55
2019-03-09T08:00:16.655Z,99126.35
2019-03-09T08:02:43.669Z,99123.44
2019-03-09T08:05:10.910Z,99127.61
2019-03-09T08:07:37.971Z,99123.48
2019-03-09T08:10:06.229Z,99118.56
2019-03-09T08:12:33.410Z,99114.88
2019-03-09T08:15:00.533Z,99119.50
2019-03-09T08:17:27.542Z,99117.05
2019-03-09T08:19:54.629Z,99114.35
2019-03-09T08:22:21.729Z,99108.83
2019-03-09T08:24:48.811Z,99114.98
2019-03-09T08:27:15.869Z,99118.12
2019-03-09T08:29:42.943Z,99113.42
2019-03-09T08:32:10.018Z,99113.50
2019-03-09T08:34:37.081Z,99111.77
2019-03-09T08:37:04.176Z,99110.52
2019-03-09T08:39:31.250Z,99110.59
2019-03-09T08:41:58.313Z,99108.38
2019-03-09T08:44:25.449Z,99115.26
2019-03-09T08:46:52.539Z,99108.14
2019-03-09T08:49:19.587Z,99110.73
2019-03-09T08:51:46.666Z,99106.80
2019-03-09T08:54:13.777Z,99101.13
2019-03-09T08:56:40.837Z,99104.19
2019-03-09T08:59:07.875Z,99107.60
2019-03-09T09:01:34.967Z,99108.00
2019-03-09T09:04:04.817Z,99107.92
2019-03-09T09:06:31.845Z,99107.06
2019-03-09T09:09:03.301Z,99108.34
2019-03-09T09:11:30.458Z,99100.51
2019-03-09T09:13:57.540Z,99088.69
2019-03-09T09:16:24.621Z,99088.55
2019-03-09T09:18:55.029Z,99082.36
2019-03-09T09:21:22.102Z,99081.44
2019-03-09T09:23:49.201Z,99072.66
2019-03-09T09:26:16.255Z,99067.29
2019-03-09T09:28:43.375Z,99068.45
2019-03-09T09:31:10.451Z,99060.50
2019-03-09T09:33:37.527Z,99055.80
2019-03-09T09:36:04.640Z,99051.52
2019-03-09T09:38:31.790Z,99040.68
2019-03-09T09:40:58.883Z,99047.98
2019-03-09T09:43:26.012Z,99045.28
2019-03-09T09:45:53.280Z,99048.75
2019-03-09T09:48:20.355Z,99051.73
2019-03-09T09:50:47.450Z,99045.20
2019-03-09T09:53:14.544Z,99043.83
2019-03-09T09:55:41.691Z,99039.05
2019-03-09T09:58:08.860Z,99044.20
2019-03-09T10:00:35.964Z,99035.56
2019-03-09T10:03:07.553Z,99028.93
2019-03-09T10:05:34.668Z,99025.03
2019-03-09T10:08:08.950Z,99026.97
2019-03-09T10:10:36.018Z,99022.20
2019-03-09T10:13:03.185Z,99016.14
2019-03-09T10:15:30.357Z,99016.29
2019-03-09T10:17:57.482Z,99009.13
2019-03-09T10:20:24.589Z,99005.75
2019-03-09T10:22:51.692Z,99004.08
2019-03-09T10:25:19.073Z,99006.23
2019-03-09T10:27:46.353Z,98997.84
2019-03-09T10:30:17.683Z,98991.38
2019-03-09T10:32:44.844Z,98989.06
2019-03-09T10:35:11.906Z,98976.60
2019-03-09T10:37:38.969Z,98974.84
2019-03-09T10:40:06.815Z,98973.98
2019-03-09T10:42:33.886Z,98968.47
2019-03-09T10:45:00.979Z,98968.09
2019-03-09T10:47:28.039Z,98966.80
2019-03-09T10:49:55.099Z,98957.27
2019-03-09T10:52:22.244Z,98959.55
2019-03-09T10:54:49.327Z,98953.41
2019-03-09T10:57:16.402Z,98949.66
2019-03-09T10:59:43.479Z,98940.67
2019-03-09T11:02:10.947Z,98943.22
2019-03-09T11:04:38.007Z,98939.48
2019-03-09T11:07:05.082Z,98937.75
2019-03-09T11:09:32.150Z,98938.25
2019-03-09T11:11:59.221Z,98930.94
2019-03-09T11:14:26.377Z,98928.13
2019-03-09T11:16:53.434Z,98914.37
2019-03-09T11:19:20.497Z,98906.05
2019-03-09T11:21:47.564Z,98900.93
2019-03-09T11:24:14.637Z,98893.90
2019-03-09T11:26:41.702Z,98887.92
2019-03-09T11:29:08.759Z,98888.85
2019-03-09T11:31:35.910Z,98883.01
2019-03-09T11:34:02.988Z,98875.01
2019-03-09T11:36:30.065Z,98869.88
2019-03-09T11:38:57.154Z,98862.18
2019-03-09T11:41:24.240Z,98861.92
2019-03-09T11:43:51.321Z,98855.14
2019-03-09T11:46:18.392Z,98850.59
2019-03-09T11:48:45.467Z,98842.39
2019-03-09T11:51:12.537Z,98846.92
2019-03-09T11:53:39.650Z,98837.28
2019-03-09T11:56:06.771Z,98833.40
2019-03-09T11:58:33.850Z,98827.31
2019-03-09T12:01:00.959Z,98814.13
2019-03-09T12:03:28.093Z,98809.91
2019-03-09T12:05:55.171Z,98811.30
2019-03-09T12:08:22.241Z,98814.69
2019-03-09T12:10:49.343Z,98812.47
2019-03-09T12:13:16.457Z,98805.24
2019-03-09T12:15:43.519Z,98801.00
2019-03-09T12:18:10.618Z,98800.59
2019-03-09T12:20:37.715Z,98793.30
2019-03-09T12:23:15.392Z,98785.83
2019-03-09T12:25:42.537Z,98789.06
2019-03-09T12:28:09.607Z,98792.92
2019-03-09T12:30:36.679Z,98779.27
2019-03-09T12:33:03.767Z,98780.16
2019-03-09T12:35:30.842Z,98767.24
2019-03-09T12:37:57.984Z,98765.56
2019-03-09T12:40:36.387Z,98754.67
2019-03-09T12:43:03.576Z,98747.58
2019-03-09T12:45:30.678Z,98744.33
2019-03-09T12:47:57.787Z,98735.17
2019-03-09T12:50:24.888Z,98729.72
2019-03-09T12:52:54.939Z,98726.30
2019-03-09T12:55:22.343Z,98724.30
2019-03-09T12:57:49.498Z,98729.69
2019-03-09T13:00:16.890Z,98718.13
2019-03-09T13:02:43.988Z,98723.89
2019-03-09T13:05:11.060Z,98725.09
2019-03-09T13:07:38.143Z,98723.16
2019-03-09T13:10:05.348Z,98720.63
2019-03-09T13:12:32.416Z,98723.35
2019-03-09T13:14:59.490Z,98717.30
2019-03-09T13:17:26.615Z,98724.41
2019-03-09T13:19:53.751Z,98719.50
2019-03-09T13:22:20.818Z,98708.20
2019-03-09T13:24:47.879Z,98713.24
2019-03-09T13:27:14.964Z,98700.13
2019-03-09T13:29:42.091Z,98696.02
2019-03-09T13:32:09.148Z,98696.39
2019-03-09T13:34:36.232Z,98691.48
2019-03-09T13:37:03.322Z,98689.95
2019-03-09T13:39:30.420Z,98685.55
2019-03-09T13:41:57.520Z,98674.28
2019-03-09T13:44:24.939Z,98672.38
2019-03-09T13:46:52.155Z,98663.95
2019-03-09T13:49:19.234Z,98659.87
2019-03-09T13:51:46.350Z,98658.52
2019-03-09T13:54:13.454Z,98647.55
2019-03-09T13:56:40.564Z,98650.55
2019-03-09T13:59:07.635Z,98645.68
2019-03-09T14:01:34.717Z,98643.36
2019-03-09T14:04:01.887Z,98646.97
2019-03-09T14:06:28.983Z,98640.20
2019-03-09T14:08:56.139Z,98637.72
2019-03-09T14:11:23.254Z,98631.63
2019-03-09T14:13:50.331Z,98637.72
2019-03-09T14:16:17.432Z,98632.88
2019-03-09T14:18:44.528Z,98628.06
2019-03-09T14:21:11.765Z,98616.01
2019-03-09T14:23:38.840Z,98611.36
2019-03-09T14:26:05.908Z,98612.34
2019-03-09T14:28:33.015Z,98606.84
2019-03-09T14:31:00.286Z,98607.77
2019-03-09T14:33:28.917Z,98606.13
2019-03-09T14:35:56.322Z,98602.80
2019-03-09T14:38:23.538Z,98598.61
2019-03-09T14:40:50.642Z,98595.19
2019-03-09T14:43:17.714Z,98587.86
2019-03-09T14:45:44.795Z,98586.55
2019-03-09T14:48:11.872Z,98575.64
2019-03-09T14:50:38.922Z,98576.06
2019-03-09T14:53:09.121Z,98566.79
2019-03-09T14:55:36.337Z,98562.94
2019-03-09T14:58:08.401Z,98552.36
2019-03-09T15:00:36.676Z,98551.38
2019-03-09T15:03:04.303Z,98543.97
2019-03-09T15:05:31.371Z,98544.95
2019-03-09T15:07:58.453Z,98544.63
2019-03-09T15:10:25.538Z,98542.84
2019-03-09T15:12:52.623Z,98534.46
2019-03-09T15:15:19.714Z,98537.87
2019-03-09T15:17:46.784Z,98529.08
2019-03-09T15:20:14.406Z,98525.61
2019-03-09T15:22:41.489Z,98522.52
2019-03-09T15:25:09.314Z,98524.34
2019-03-09T15:27:36.435Z,98512.77
2019-03-09T15:30:04.188Z,98511.72
2019-03-09T15:32:31.266Z,98505.77
2019-03-09T15:35:00.458Z,98506.70
2019-03-09T15:37:27.345Z,98499.34
2019-03-09T15:39:54.410Z,98502.77
2019-03-09T15:42:21.521Z,98502.38
2019-03-09T15:44:48.591Z,98498.36
2019-03-09T15:47:15.675Z,98500.14
2019-03-09T15:49:42.747Z,98492.79
2019-03-09T15:52:10.445Z,98486.31
2019-03-09T15:54:37.628Z,98486.78
2019-03-09T15:57:04.913Z,98489.78
2019-03-09T15:59:31.991Z,98486.78
2019-03-09T16:02:08.902Z,98477.73
2019-03-09T16:04:36.023Z,98478.25
2019-03-09T16:07:05.685Z,98469.21
2019-03-09T16:09:32.785Z,98457.16
2019-03-09T16:11:59.851Z,98460.72
2019-03-09T16:14:26.982Z,98461.23
2019-03-09T16:16:54.060Z,98457.85
2019-03-09T16:19:21.177Z,98455.74
2019-03-09T16:21:48.374Z,98449.70
2019-03-09T16:24:15.599Z,98445.77
2019-03-09T16:26:42.679Z,98448.02
2019-03-09T16:29:09.749Z,98435.45
2019-03-09T16:31:36.844Z,98441.59
2019-03-09T16:34:03.961Z,98437.80
2019-03-09T16:36:31.023Z,98435.31
2019-03-09T16:38:58.087Z,98431.08
2019-03-09T16:41:25.172Z,98429.44
2019-03-09T16:43:54.542Z,98423.95
2019-03-09T16:46:24.461Z,98422.77
2019-03-09T16:48:51.736Z,98421.98
2019-03-09T16:51:18.841Z,98424.22
2019-03-09T16:53:45.915Z,98416.44
2019-03-09T16:56:15.336Z,98417.41
2019-03-09T16:58:44.451Z,98417.00
2019-03-09T17:01:14.287Z,98408.84
2019-03-09T17:03:42.290Z,98407.66
2019-03-09T17:06:09.363Z,98405.09
2019-03-09T17:08:36.482Z,98403.16
2019-03-09T17:11:06.572Z,98405.91
2019-03-09T17:13:33.636Z,98404.34
2019-03-09T17:16:00.707Z,98401.31
2019-03-09T17:18:27.792Z,98395.44
2019-03-09T17:20:56.697Z,98396.83
2019-03-09T17:23:23.841Z,98394.80
2019-03-09T17:25:50.923Z,98402.25
2019-03-09T17:28:17.995Z,98401.06
2019-03-09T17:30:45.055Z,98397.14
2019-03-09T17:33:12.210Z,98398.06
2019-03-09T17:35:39.267Z,98395.53
2019-03-09T17:38:09.047Z,98397.81
2019-03-09T17:40:39.117Z,98396.55
2019-03-09T17:43:08.657Z,98387.47
2019-03-09T17:45:37.769Z,98387.47
2019-03-09T17:48:04.761Z,98383.67
2019-03-09T17:50:31.836Z,98380.25
2019-03-09T17:52:58.940Z,98377.71
2019-03-09T17:55:27.501Z,98384.34
2019-03-09T17:57:54.602Z,98379.61
2019-03-09T18:00:22.162Z,98377.97
2019-03-09T18:02:49.272Z,98375.02
2019-03-09T18:05:19.922Z,98369.39
2019-03-09T18:07:48.512Z,98364.23
2019-03-09T18:10:22.244Z,98361.20
2019-03-09T18:12:49.342Z,98362.09
2019-03-09T18:15:18.179Z,98360.36
2019-03-09T18:17:45.289Z,98361.67
2019-03-09T18:20:12.387Z,98356.52
2019-03-09T18:22:39.568Z,98351.33
2019-03-09T18:25:09.211Z,98345.33
2019-03-09T18:27:37.398Z,98343.60
2019-03-09T18:30:04.717Z,98350.69
2019-03-09T18:32:31.788Z,98348.13
2019-03-09T18:34:58.942Z,98339.89
2019-03-09T18:37:26.009Z,98342.12
2019-03-09T18:39:53.103Z,98335.62
2019-03-09T18:42:20.211Z,98334.31
2019-03-09T18:44:47.311Z,98335.24
2019-03-09T18:47:14.380Z,98326.59
2019-03-09T18:49:44.544Z,98323.97
2019-03-09T18:52:14.217Z,98326.20
2019-03-09T18:54:43.006Z,98325.83
2019-03-09T18:57:10.088Z,98325.02
2019-03-09T18:59:37.171Z,98328.57
2019-03-09T19:02:08.030Z,98319.92
2019-03-09T19:04:35.089Z,98319.54
2019-03-09T19:07:04.690Z,98322.66
2019-03-09T19:09:34.292Z,98317.97
2019-03-09T19:12:04.166Z,98318.02
2019-03-09T19:14:32.159Z,98315.48
2019-03-09T19:16:59.229Z,98310.38
2019-03-09T19:19:26.302Z,98311.69
2019-03-09T19:21:53.402Z,98310.89
2019-03-09T19:24:20.454Z,98306.66
2019-03-09T19:26:47.562Z,98304.67
2019-03-09T19:29:14.628Z,98298.26
2019-03-09T19:31:41.690Z,98299.27
2019-03-09T19:34:08.756Z,98303.70
2019-03-09T19:36:35.840Z,98294.54
2019-03-09T19:39:04.288Z,98295.97
2019-03-09T19:41:34.423Z,98292.59
2019-03-09T19:44:04.584Z,98299.56
2019-03-09T19:46:31.683Z,98293.22
2019-03-09T19:48:58.770Z,98294.15
2019-03-09T19:51:25.879Z,98298.07
2019-03-09T19:53:52.935Z,98299.42
2019-03-09T19:56:20.256Z,98300.34
2019-03-09T19:59:09.920Z,98293.81
2019-03-09T20:01:37.018Z,98294.27
2019-03-09T20:04:05.336Z,98296.42
2019-03-09T20:06:34.494Z,98293.47
2019-03-09T20:09:01.605Z,98298.31
2019-03-09T20:11:28.662Z,98295.82
2019-03-09T20:13:55.735Z,98295.09
2019-03-09T20:16:25.609Z,98292.14
2019-03-09T20:18:55.164Z,98292.56
2019-03-09T20:21:22.365Z,98289.61
2019-03-09T20:23:49.423Z,98291.38
2019-03-09T20:26:16.636Z,98288.34
2019-03-09T20:28:43.692Z,98289.27
2019-03-09T20:31:10.777Z,98295.42
2019-03-09T20:33:37.852Z,98295.20
2019-03-09T20:36:07.056Z,98293.55
2019-03-09T20:38:34.133Z,98298.47
2019-03-09T20:41:07.428Z,98295.91
2019-03-09T20:43:36.831Z,98303.36
2019-03-09T20:46:05.855Z,98298.75
2019-03-09T20:48:33.977Z,98306.20
2019-03-09T20:51:01.093Z,98296.33
2019-03-09T20:53:28.179Z,98304.09
2019-03-09T20:55:58.259Z,98305.94
2019-03-09T20:58:26.454Z,98306.91
2019-03-09T21:00:54.555Z,98306.91
2019-03-09T21:03:22.932Z,98308.33
2019-03-09T21:05:50.208Z,98318.05
2019-03-09T21:08:17.264Z,98320.28
2019-03-09T21:10:44.340Z,98315.90
2019-03-09T21:13:11.431Z,98320.31
2019-03-09T21:15:38.486Z,98320.85
2019-03-09T21:18:05.552Z,98313.17
2019-03-09T21:20:32.652Z,98326.08
2019-03-09T21:22:59.714Z,98318.42
2019-03-09T21:25:26.791Z,98334.39
2019-03-09T21:27:53.858Z,98333.59
2019-03-09T21:30:20.920Z,98332.81
2019-03-09T21:32:47.998Z,98338.15
2019-03-09T21:35:15.079Z,98340.06
2019-03-09T21:37:42.174Z,98336.82
2019-03-09T21:40:09.724Z,98342.61
2019-03-09T21:42:36.824Z,98346.63
2019-03-09T21:45:04.074Z,98349.88
2019-03-09T21:47:31.153Z,98355.20
2019-03-09T21:49:58.291Z,98361.23
2019-03-09T21:52:25.364Z,98358.20
2019-03-09T21:54:52.521Z,98359.16
2019-03-09T21:57:19.672Z,98358.31
2019-03-09T21:59:46.751Z,98368.44
2019-03-09T22:02:13.862Z,98368.54
2019-03-09T22:04:40.928Z,98375.73
2019-03-09T22:07:08.003Z,98372.88
2019-03-09T22:09:35.081Z,98379.56
2019-03-09T22:12:02.158Z,98381.92
2019-03-09T22:14:29.230Z,98385.58
2019-03-09T22:16:57.151Z,98390.19
2019-03-09T22:19:24.764Z,98397.13
2019-03-09T22:21:51.910Z,98399.80
2019-03-09T22:24:18.969Z,98401.50
2019-03-09T22:26:46.048Z,98408.09
2019-03-09T22:29:13.104Z,98407.80
2019-03-09T22:31:40.171Z,98402.16
2019-03-09T22:34:07.345Z,98410.95
2019-03-09T22:36:34.426Z,98412.75
2019-03-09T22:39:04.168Z,98412.30
2019-03-09T22:41:31.415Z,98415.95
2019-03-09T22:43:58.495Z,98421.62
2019-03-09T22:46:27.815Z,98431.56
2019-03-09T22:48:55.443Z,98428.14
2019-03-09T22:51:22.515Z,98434.27
2019-03-09T22:53:49.606Z,98432.05
2019-03-09T22:56:16.777Z,98432.57
2019-03-09T22:58:43.885Z,98432.20
2019-03-09T23:01:11.057Z,98429.66
2019-03-09T23:03:39.509Z,98441.82
2019-03-09T23:06:07.643Z,98444.01
2019-03-09T23:08:34.807Z,98440.52
2019-03-09T23:11:04.213Z,98443.58
2019-03-09T23:13:31.304Z,98447.48
2019-03-09T23:15:58.401Z,98459.66
2019-03-09T23:18:25.543Z,98464.35
2019-03-09T23:20:52.647Z,98469.86
2019-03-09T23:23:19.721Z,98472.47
2019-03-09T23:25:47.891Z,98471.23
2019-03-09T23:28:15.032Z,98463.02
2019-03-09T23:30:42.121Z,98466.56
2019-03-09T23:33:09.240Z,98470.17
2019-03-09T23:35:37.578Z,98468.97
2019-03-09T23:38:04.676Z,98472.12
2019-03-09T23:40:31.764Z,98483.85
2019-03-09T23:42:58.832Z,98480.27
2019-03-09T23:45:26.079Z,98476.36
2019-03-09T23:47:53.195Z,98493.83
2019-03-09T23:50:22.640Z,98493.00
2019-03-09T23:52:49.835Z,98500.34
2019-03-09T23:55:22.451Z,98503.44
2019-03-09T23:57:48.532Z,98510.38
